罗盘
风向 的 风向 130°
风: 12 kt, 4 beaufort

添加一条跑道以查看侧风和逆风信息。

添置 跑道
0 2.000 4.000 6.000 8.000 10.000
FEW 5.600 ft
METAR FMEE 252000Z AUTO 13012KT 9999 FEW056/// 21/17 Q1023 NOSIG

METAR Skydive Austral Airstrip - MU-0002

Skydive Austral Airstrip是Triolet,毛里求斯中的小机场。 该领域的国际民航组织标志是MU-0002.

这份报告是针对2022年9月26日 00:00, 当地时间在Roland Garros Airport进行的。

机场观察

风向为130°,速度为12 kt。

可见度为10 km 或者更多。

有几云在5.600 ft的高度。 没有观察到天花板。

温度和风寒是21 °C。 露点为17 °C,相对湿度为78%。 海平面上的气压为1023 hPa (QNH)。

白天

今天,太阳从05:56升起,在18:05降落。 这适用于Skydive Austral Airstrip,世界夏令时可能有所不同。 当地时间与世界标准时间之间的时差为+4 小时。 夏令时目前正在进行中。

公司介绍

我们没有关于这个机场的公司信息。

体会

到Vliegles.nl去找飞行课程,跳伞和其他飞行体验。 浏览页面,了解Skydive Austral Airstrip附近所有可用的活动。 你也可以使用搜索功能来寻找你所在地附近的特定飞行课程、跳伞或其他飞行体验。

乌云

5.600 ft FEW 几云

温度 & 天气

温度 21 °C
露点 17 °C
相对湿度 78%
Kp-index 0  

白天

日出
06:04
中午
12:09
日落
18:14

小工具

你想在你的网站上有一个关于Skydive Austral Airstrip的当前航空天气(METAR)的小部件吗?

</> 显示HTML代码

我们和第三方通过cookies跟踪您在我们网站上的上网行为。如果您继续,我们认为您同意我们的cookie政策。 了解更多